KMXF/MXF METAR and TAF weather

Enter ICAO airport designator
Station Type Date Time Source
KMXF METAR 2022/01/25 03:56 UTC NOAA

KMXF 250356Z AUTO 00000KT 10SM BKN140 BKN160 09/02 A2995 RMK AO2 SLP145 T00940020


Station Type Date Time Source
KMXF Decoded METAR 2022/01/25 03:56 UTC NOAA

Maxwell Air Force Base / Montgomery, AL, United States (KMXF) 32-23N 086-22W
Jan 24, 2022 - 10:56 PM EST / 2022.01.25 0356 UTC
Wind: Calm:0
Visibility: 10 mile(s):0
Sky conditions: mostly cloudy
Temperature: 48.9 F (9.4 C)
Dew Point: 35.6 F (2.0 C)
Relative Humidity: 59%
Pressure (altimeter): 29.95 in. Hg (1014 hPa)
ob: KMXF 250356Z AUTO 00000KT 10SM BKN140 BKN160 09/02 A2995 RMK AO2 SLP145 T00940020
cycle: 4

Station Type Date Time Source
KMXF TAF 2022/01/24 20:26 UTC NOAA

TAF KMXF 242000Z 2420/2602 VRB06KT 9999 FEW180 QNH2990INS
BECMG 2509/2510 VRB06KT 9000 DZ BKN009 QNH2996INS
BECMG 2510/2511 VRB06KT 8000 -RA BKN005 QNH2998INS
BECMG 2512/2513 VRB06KT 6000 -RA BKN002 QNH2999INS
BECMG 2514/2515 VRB06KT 8000 BR OVC005 QNH3003INS
BECMG 2521/2522 VRB06KT 8000 BR SCT010 QNH3003INS TX16/2421Z TN06/2513Z LAST NO
AMDS AFT 2504 NEXT 2512

Example: see airport list